Latest Weather Observations for Bulman

IDD60801

Issued at 10:31 pm CST Sunday 26 April 2015 (issued every 30 minutes, with the page automatically refreshed every 10 minutes)

About weather observations | Map of weather stations | Latest weather observations for NT | Other Formats
Station Details ID: 014627 Name: BULMAN Lat: -13.67 Lon: 134.34 Height: 103.4 m
Data from the previous 72 hours. | See also: Recent months for locations in Northern Territory
Date/Time
CST
Temp
°C
App
Temp
°C
Dew
Point
Rel
Hum
%
Delta-T
°C
Wind Press
QNH
hPa
Press
MSL
hPa
Rain
since 9 am
mm
Dir
 
Spd
km/h
Gust
km/h
Spd
kts
Gust
kts
26/10:30pm 18.9 19.6 15.6 81 2.0 SSE 6 7 3 4 1015.6 1015.0 0.0
26/10:00pm 19.5 21.3 15.6 78 2.3 CALM 0 0 0 0 1015.6 1015.0 0.0
26/09:30pm 19.8 21.3 14.6 72 3.0 CALM 0 0 0 0 1015.5 1014.9 0.0
26/09:00pm 20.9 22.3 14.3 66 3.9 CALM 0 0 0 0 1015.4 1014.8 0.0
26/08:30pm 22.2 23.4 13.8 59 4.9 CALM 0 0 0 0 1015.2 1014.6 0.0
26/08:00pm 23.8 23.5 13.4 52 6.1 SE 7 11 4 6 1014.8 1014.2 0.0
26/07:30pm 24.4 23.9 12.7 48 6.8 ESE 7 9 4 5 1014.4 1013.8 0.0
26/07:00pm 24.6 24.2 12.5 46 7.0 ESE 6 7 3 4 1014.0 1013.4 0.0
26/06:30pm 26.7 25.6 10.8 37 9.0 ESE 7 11 4 6 1013.5 1012.9 0.0
26/06:00pm 28.1 26.7 10.8 34 9.9 SE 9 17 5 9 1013.1 1012.5 0.0
26/05:30pm 29.5 27.1 10.1 30 11.0 SE 13 20 7 11 1012.8 1012.2 0.0
26/05:00pm 30.3 28.1 9.2 27 11.8 ESE 11 19 6 10 1012.6 1012.0 0.0
26/04:30pm 30.7 28.2 9.6 27 11.9 ESE 13 22 7 12 1012.4 1011.8 0.0
26/04:00pm 30.7 27.5 10.1 28 11.8 SE 17 26 9 14 1012.4 1011.8 0.0
26/03:30pm 31.1 27.7 9.3 26 12.3 SE 17 24 9 13 1012.5 1011.9 0.0
26/03:00pm 31.4 28.4 10.7 28 12.0 SE 17 26 9 14 1012.6 1012.0 0.0
26/02:30pm 31.6 29.4 10.9 28 12.0 ESE 13 26 7 14 1012.8 1012.2 0.0
26/02:00pm 30.8 28.1 10.2 28 11.8 ESE 15 24 8 13 1013.2 1012.6 0.0
26/01:30pm 30.2 27.1 10.2 29 11.4 SE 17 28 9 15 1013.4 1012.8 0.0
26/01:00pm 30.6 28.3 10.5 29 11.5 ESE 13 26 7 14 1013.8 1013.2 0.0
26/12:30pm 29.7 26.1 8.2 26 11.8 ESE 17 26 9 14 1014.2 1013.6 0.0
26/12:00pm 29.3 25.7 6.7 24 12.1 SE 15 24 8 13 1014.7 1014.1 0.0
26/11:30am 29.1 25.4 6.5 24 12.0 ESE 15 20 8 11 1015.1 1014.5 0.0
26/10:30am 28.0 24.0 6.7 26 11.3 SSE 17 28 9 15 1015.6 1015.0 0.0
26/10:00am 26.9 22.6 6.9 28 10.6 SE 19 28 10 15 1015.7 1015.1 0.0
26/09:30am 25.5 22.4 8.9 35 9.0 SSE 15 26 8 14 1015.6 1015.0 0.0
26/09:00am 24.3 21.0 9.5 39 8.1 SSE 17 28 9 15 1015.4 1014.8 0.0
26/08:30am 23.3 20.6 11.7 48 6.6 SSE 17 22 9 12 1015.0 1014.4 0.0
26/08:00am 22.6 21.0 12.8 54 5.6 SSE 13 20 7 11 1014.7 1014.1 0.0
26/07:30am 21.4 20.9 15.0 67 3.8 S 11 15 6 8 1014.5 1013.9 0.0
26/07:00am 20.7 20.6 15.9 74 2.9 S 11 17 6 9 1014.3 1013.7 0.0
26/06:30am 20.2 20.5 16.0 77 2.5 S 9 11 5 6 1014.1 1013.5 0.0
26/06:00am 20.3 21.1 16.3 78 2.4 S 7 9 4 5 1013.8 1013.2 0.0
26/05:30am 20.3 21.1 16.3 78 2.4 S 7 9 4 5 1013.6 1013.0 0.0
26/05:00am 20.8 21.2 16.2 75 2.8 S 9 15 5 8 1013.5 1012.9 0.0
26/04:30am 21.1 21.3 16.7 76 2.7 S 11 19 6 10 1013.3 1012.7 0.0
26/04:00am 20.5 21.1 16.7 79 2.3 SSW 9 15 5 8 1013.1 1012.5 0.0
26/03:30am 18.6 19.4 17.3 92 0.8 NNW 9 13 5 7 1012.8 1012.2 0.0
26/03:00am 17.0 18.9 15.7 92 0.8 CALM 0 0 0 0 1012.5 1011.9 0.0
26/02:30am 17.5 18.3 16.4 93 0.7 SSW 7 9 4 5 1012.6 1012.0 0.0
26/02:00am 17.7 18.6 16.2 91 0.9 SW 6 9 3 5 1012.8 1012.2 0.0
26/01:30am 18.0 18.8 16.3 90 1.0 SSW 7 9 4 5 1013.0 1012.4 0.0
26/01:00am 18.1 19.0 16.1 88 1.2 W 6 7 3 4 1013.2 1012.6 0.0
26/12:30am 18.2 18.8 15.8 86 1.4 NNW 7 7 4 4 1013.4 1012.8 0.0
26/12:00am 18.4 19.1 15.6 84 1.7 W 6 7 3 4 1013.6 1013.0 0.0
 
Date/Time
CST
Temp
°C
App
Temp
°C
Dew
Point
Rel
Hum
%
Delta-T
°C
Wind Press
QNH
hPa
Press
MSL
hPa
Rain
since 9 am
mm
Dir
 
Spd
km/h
Gust
km/h
Spd
kts
Gust
kts
25/11:30pm 18.5 19.1 15.2 81 1.9 NW 6 7 3 4 1013.7 1013.1 0.0
25/11:00pm 18.9 19.3 14.8 77 2.4 SSW 6 7 3 4 1013.8 1013.2 0.0
25/10:30pm 19.5 20.1 15.4 77 2.4 NW 6 7 3 4 1013.9 1013.3 0.0
25/10:00pm 20.0 20.5 15.0 73 2.9 SSE 6 7 3 4 1013.8 1013.2 0.0
25/09:30pm 20.4 20.6 14.3 68 3.6 S 6 7 3 4 1013.7 1013.1 0.0
25/09:00pm 21.0 21.8 13.7 63 4.2 SE 2 6 1 3 1013.6 1013.0 0.0
25/08:30pm 22.0 22.5 12.8 56 5.3 SSE 2 6 1 3 1013.3 1012.7 0.0
25/08:00pm 23.2 22.5 11.3 47 6.7 SE 6 7 3 4 1012.8 1012.2 0.0
25/07:30pm 24.3 23.2 9.8 40 8.0 ESE 6 7 3 4 1012.4 1011.8 0.0
25/07:00pm 25.5 24.0 8.5 34 9.2 ESE 6 6 3 3 1012.1 1011.5 0.0
25/06:30pm 28.1 26.3 7.9 28 11.0 ESE 7 9 4 5 1011.7 1011.0 0.0
25/06:00pm 30.0 27.1 6.6 23 12.6 ESE 11 17 6 9 1011.0 1010.3 0.0
25/05:30pm 31.4 28.0 5.8 20 13.7 SE 13 22 7 12 1010.5 1009.8 0.0
25/05:00pm 32.3 28.2 4.2 17 14.7 SE 15 24 8 13 1010.2 1009.5 0.0
25/04:30pm 32.9 29.1 3.8 16 15.2 SE 13 20 7 11 1010.0 1009.3 0.0
25/04:00pm 33.6 29.5 4.3 16 15.4 SE 15 22 8 12 1009.8 1009.1 0.0
25/03:30pm 33.8 30.3 5.4 17 15.3 ESE 13 22 7 12 1009.7 1009.0 0.0
25/03:00pm 33.7 31.4 10.3 24 13.6 ESE 13 24 7 13 1009.8 1009.1 0.0
25/02:30pm 33.5 31.1 10.2 24 13.5 ESE 13 20 7 11 1010.0 1009.3 0.0
25/02:00pm 33.3 30.1 10.0 24 13.4 SE 17 28 9 15 1010.3 1009.6 0.0
25/01:30pm 33.0 30.1 9.7 24 13.4 ESE 15 24 8 13 1010.8 1010.1 0.0
25/01:00pm 33.0 29.9 10.4 25 13.1 SE 17 24 9 13 1011.0 1010.3 0.0
25/12:30pm 31.9 28.9 10.6 27 12.3 SE 17 26 9 14 1011.5 1010.8 0.0
25/12:00pm 31.2 29.0 12.1 31 11.3 SE 15 24 8 13 1012.0 1011.4 0.0
25/11:30am 30.2 29.0 13.9 37 9.9 SE 13 20 7 11 1012.4 1011.8 0.0
25/11:00am 29.4 27.8 14.0 39 9.3 SSE 15 22 8 12 1012.9 1012.3 0.0
25/10:30am 28.6 28.7 16.5 48 7.6 S 11 17 6 9 1013.2 1012.6 0.0
25/10:00am 27.7 28.2 16.6 50 6.9 SSE 9 17 5 9 1013.4 1012.8 0.0
25/09:30am 26.5 27.3 17.3 57 5.8 SSE 9 15 5 8 1013.3 1012.7 0.0
25/09:00am 25.3 25.9 16.7 59 5.3 SSE 9 13 5 7 1013.0 1012.4 0.0
25/08:30am 23.7 24.4 17.0 66 4.1 SE 9 13 5 7 1012.8 1012.2 0.0
25/08:00am 20.3 23.3 18.4 89 1.2 CALM 0 0 0 0 1012.5 1011.9 0.0
25/07:30am 18.2 21.0 18.0 99 0.1 CALM 0 0 0 0 1012.3 1011.7 0.0
25/07:00am 16.5 18.5 16.0 97 0.3 CALM 0 0 0 0 1012.1 1011.5 0.0
25/06:30am 16.4 18.3 15.8 96 0.4 CALM 0 0 0 0 1011.8 1011.1 0.0
25/06:00am 16.7 18.7 16.1 96 0.4 CALM 0 0 0 0 1011.5 1010.8 0.0
25/05:30am 16.9 19.0 16.3 96 0.4 CALM 0 0 0 0 1011.3 1010.6 0.0
25/05:00am 17.2 19.4 16.6 96 0.4 CALM 0 0 0 0 1011.1 1010.4 0.0
25/04:30am 17.4 19.7 16.8 96 0.4 CALM 0 0 0 0 1011.1 1010.4 0.0
25/04:00am 17.5 19.8 16.7 95 0.5 CALM 0 0 0 0 1011.0 1010.3 0.0
25/03:30am 17.7 20.0 16.7 94 0.6 CALM 0 0 0 0 1011.0 1010.3 0.0
25/03:00am 18.1 20.5 16.9 93 0.7 CALM 0 0 0 0 1011.0 1010.3 0.0
25/02:30am 18.5 21.0 17.2 92 0.8 CALM 0 0 0 0 1011.1 1010.4 0.0
25/02:00am 18.9 21.5 17.4 91 0.9 CALM 0 0 0 0 1011.2 1010.5 0.0
25/01:30am 19.4 22.1 17.7 90 1.0 CALM 0 0 0 0 1011.6 1010.9 0.0
25/01:00am 20.1 23.0 18.2 89 1.2 CALM 0 0 0 0 1012.0 1011.4 0.0
25/12:30am 20.4 23.2 18.0 86 1.5 CALM 0 0 0 0 1012.0 1011.4 0.0
25/12:00am 21.1 24.1 18.5 85 1.6 CALM 0 0 0 0 1012.1 1011.5 0.0
 
Date/Time
CST
Temp
°C
App
Temp
°C
Dew
Point
Rel
Hum
%
Delta-T
°C
Wind Press
QNH
hPa
Press
MSL
hPa
Rain
since 9 am
mm
Dir
 
Spd
km/h
Gust
km/h
Spd
kts
Gust
kts
24/11:30pm 21.4 23.1 18.4 83 1.9 W 7 7 4 4 1012.2 1011.6 0.0
24/11:00pm 22.1 25.0 18.3 79 2.4 CALM 0 0 0 0 1012.1 1011.5 0.0
24/10:30pm 23.0 25.9 18.3 75 3.0 CALM 0 0 0 0 1012.1 1011.5 0.0
24/10:00pm 23.9 25.9 17.9 69 3.8 SE 4 6 2 3 1012.2 1011.6 0.0
24/09:30pm 25.1 26.5 17.3 62 4.9 SE 6 7 3 4 1012.3 1011.7 0.0
24/09:00pm 24.8 26.3 18.0 66 4.3 SE 7 9 4 5 1012.0 1011.4 0.0
24/08:30pm 24.3 26.0 18.5 70 3.7 SE 7 9 4 5 1011.6 1010.9 0.0
24/08:00pm 24.1 27.2 18.7 72 3.4 CALM 0 0 0 0 1011.0 1010.3 0.0
24/07:30pm 24.8 26.3 18.0 66 4.3 SW 7 9 4 5 1010.4 1009.7 0.0
24/07:00pm 25.6 28.2 17.5 61 5.1 CALM 0 0 0 0 1009.9 1009.2 0.0
24/06:30pm 27.3 29.5 16.6 52 6.7 CALM 0 0 0 0 1009.8 1009.1 0.0
24/06:00pm 31.3 33.5 16.5 41 9.3 CALM 0 0 0 0 1009.4 1008.7 0.0
24/05:30pm 32.9 32.5 12.5 29 12.2 ESE 6 7 3 4 1008.9 1008.2 0.0
24/05:00pm 33.4 32.7 11.9 27 12.8 ENE 7 11 4 6 1008.8 1008.1 0.0
24/04:30pm 33.7 33.0 13.2 29 12.4 SE 9 13 5 7 1008.8 1008.1 0.0
24/04:00pm 34.0 34.0 13.5 29 12.5 SSW 6 13 3 7 1008.8 1008.1 0.0
24/03:30pm 33.9 33.1 12.8 28 12.7 SE 9 15 5 8 1008.9 1008.2 0.0
24/03:00pm 33.8 33.9 13.8 30 12.3 ENE 6 11 3 6 1008.8 1008.1 0.0
24/02:30pm 33.9 33.6 13.4 29 12.5 SW 7 17 4 9 1009.3 1008.6 0.0
24/02:00pm 33.2 32.3 13.8 31 11.8 S 11 19 6 10 1009.7 1009.0 0.0
24/01:30pm 32.7 32.7 14.3 32 11.3 SE 7 15 4 8 1009.9 1009.2 0.0
24/01:00pm 32.4 31.8 14.5 33 11.0 SE 11 20 6 11 1010.4 1009.7 0.0
24/12:30pm 31.5 31.8 17.0 41 9.2 E 11 17 6 9 1010.9 1010.2 0.0
24/12:00pm 31.3 31.7 17.2 42 9.0 SE 11 15 6 8 1011.3 1010.6 0.0
24/11:30am 30.6 31.7 18.0 47 8.1 SE 9 17 5 9 1011.9 1011.2 0.0
24/11:00am 30.3 32.1 18.4 49 7.7 ENE 6 11 3 6 1012.4 1011.8 0.0
24/10:30am 29.3 31.0 19.3 55 6.5 SE 9 13 5 7 1012.8 1012.2 0.0
24/10:00am 28.5 30.2 19.4 57 5.9 ESE 9 13 5 7 1013.2 1012.6 0.0
24/09:30am 27.8 29.7 19.8 61 5.2 ESE 9 15 5 8 1013.2 1012.6 0.0
24/09:00am 26.9 28.8 19.8 65 4.6 SE 9 13 5 7 1012.8 1012.2 0.0
24/08:30am 25.9 29.6 20.0 70 3.8 CALM 0 6 0 3 1012.5 1011.9 0.0
24/08:00am 23.1 26.8 19.9 82 2.1 CALM 0 0 0 0 1012.3 1011.7 0.0
24/07:30am 20.7 24.5 20.2 97 0.3 CALM 0 0 0 0 1012.0 1011.4 0.0
24/07:00am 18.7 21.5 18.0 96 0.4 CALM 0 0 0 0 1011.8 1011.1 0.0
24/06:30am 18.7 21.5 17.9 95 0.5 CALM 0 0 0 0 1011.6 1010.9 0.0
24/06:00am 19.1 22.0 18.1 94 0.6 CALM 0 0 0 0 1011.4 1010.7 0.0
24/05:30am 19.3 22.2 18.3 94 0.6 CALM 0 0 0 0 1011.1 1010.4 0.0
24/05:00am 19.5 22.6 18.7 95 0.5 CALM 0 0 0 0 1010.9 1010.2 0.0
24/04:30am 19.8 23.0 18.8 94 0.6 CALM 0 0 0 0 1010.8 1010.1 0.0
24/04:00am 20.1 23.3 18.8 92 0.8 CALM 0 0 0 0 1010.7 1010.0 0.0
24/03:30am 20.3 23.6 19.0 92 0.8 CALM 0 0 0 0 1010.6 1009.9 0.0
24/03:00am 20.7 24.0 19.2 91 1.0 CALM 0 0 0 0 1010.6 1009.9 0.0
24/02:30am 21.1 23.4 19.4 90 1.1 SSW 6 7 3 4 1010.7 1010.0 0.0
24/02:00am 21.3 24.4 19.6 90 1.1 S 2 9 1 5 1010.9 1010.2 0.0
24/01:30am 21.7 25.1 19.4 87 1.5 CALM 0 0 0 0 1011.1 1010.4 0.0
24/01:00am 22.2 25.7 19.6 85 1.7 CALM 0 0 0 0 1011.3 1010.6 0.0
24/12:30am 22.7 26.1 19.3 81 2.2 CALM 0 0 0 0 1011.5 1010.8 0.0
24/12:00am 23.5 26.9 19.4 78 2.6 CALM 0 0 0 0 1011.6 1010.9 0.0
 
Date/Time
CST
Temp
°C
App
Temp
°C
Dew
Point
Rel
Hum
%
Delta-T
°C
Wind Press
QNH
hPa
Press
MSL
hPa
Rain
since 9 am
mm
Dir
 
Spd
km/h
Gust
km/h
Spd
kts
Gust
kts
23/11:30pm 24.3 27.6 19.1 73 3.3 CALM 0 0 0 0 1011.9 1011.2 0.0
23/11:00pm 24.9 27.0 19.0 69 3.8 SE 6 7 3 4 1012.0 1011.4 0.0

Other Formats:

Comma delimited format used in spreadsheet applications
http://www.bom.gov.au/fwo/IDD60801/IDD60801.94143.axf

JavaScript Object Notation format (JSON) in row-major order
http://www.bom.gov.au/fwo/IDD60801/IDD60801.94143.json